createdAt,value
2022-12-22T00:01:29.883Z,100492.44
2022-12-22T00:04:17.344Z,100480.75
2022-12-22T00:07:04.683Z,100479.77
2022-12-22T00:09:51.541Z,100480.95
2022-12-22T00:12:39.328Z,100478.55
2022-12-22T00:15:30.311Z,100475.58
2022-12-22T00:18:18.078Z,100466.39
2022-12-22T00:21:06.007Z,100456.14
2022-12-22T00:23:53.405Z,100459.83
2022-12-22T00:26:41.007Z,100460.08
2022-12-22T00:29:30.675Z,100449.58
2022-12-22T00:32:17.865Z,100444.93
2022-12-22T00:35:05.577Z,100440.31
2022-12-22T00:37:56.972Z,100437.31
2022-12-22T00:40:47.602Z,100428.38
2022-12-22T00:43:35.186Z,100432.06
2022-12-22T00:46:23.516Z,100431.98
2022-12-22T00:49:10.823Z,100434.00
2022-12-22T00:51:58.600Z,100432.06
2022-12-22T00:54:46.079Z,100420.63
2022-12-22T00:57:39.088Z,100414.19
2022-12-22T01:00:27.285Z,100408.95
2022-12-22T01:03:14.769Z,100410.98
2022-12-22T01:06:02.009Z,100406.33
2022-12-22T01:08:49.491Z,100396.87
2022-12-22T01:11:36.965Z,100401.88
2022-12-22T01:14:30.079Z,100391.61
2022-12-22T01:17:17.531Z,100385.65
2022-12-22T01:20:05.164Z,100393.39
2022-12-22T01:22:52.497Z,100393.99
2022-12-22T01:25:39.219Z,100391.50
2022-12-22T01:28:29.131Z,100385.78
2022-12-22T01:31:16.634Z,100379.53
2022-12-22T01:34:04.286Z,100382.38
2022-12-22T01:36:51.355Z,100377.38
2022-12-22T01:39:38.476Z,100384.55
2022-12-22T01:42:28.014Z,100388.14
2022-12-22T01:45:16.007Z,100379.17
2022-12-22T01:48:03.496Z,100376.78
2022-12-22T01:50:53.613Z,100371.73
2022-12-22T01:53:44.007Z,100366.83
2022-12-22T01:56:31.692Z,100376.86
2022-12-22T01:59:21.141Z,100371.69
2022-12-22T02:02:08.993Z,100362.55
2022-12-22T02:04:58.969Z,100358.03
2022-12-22T02:07:55.676Z,100354.36
2022-12-22T02:11:03.707Z,100348.42
2022-12-22T02:14:29.916Z,100346.74
2022-12-22T02:17:35.235Z,100344.88
2022-12-22T02:20:37.897Z,100345.69
2022-12-22T02:23:39.807Z,100350.23
2022-12-22T02:26:49.585Z,100342.98
2022-12-22T02:29:38.709Z,100338.00
2022-12-22T02:32:26.814Z,100337.02
2022-12-22T02:35:14.424Z,100343.67
2022-12-22T02:38:10.483Z,100342.62
2022-12-22T02:41:13.252Z,100340.49
2022-12-22T02:44:15.371Z,100337.11
2022-12-22T02:47:11.869Z,100333.54
2022-12-22T02:50:02.238Z,100332.12
2022-12-22T02:52:54.284Z,100328.76
2022-12-22T02:55:41.567Z,100323.38
2022-12-22T02:58:31.212Z,100321.36
2022-12-22T03:01:18.924Z,100319.44
2022-12-22T03:04:07.131Z,100314.45
2022-12-22T03:06:54.501Z,100313.06
2022-12-22T03:09:41.775Z,100306.70
2022-12-22T03:12:29.482Z,100300.28
2022-12-22T03:15:16.630Z,100287.21
2022-12-22T03:18:03.809Z,100280.07
2022-12-22T03:20:51.260Z,100265.43
2022-12-22T03:23:38.587Z,100268.19
2022-12-22T03:26:08.209Z,100261.52
2022-12-22T03:28:37.428Z,100259.86
2022-12-22T03:31:07.819Z,100266.30
2022-12-22T03:33:37.141Z,100266.77
2022-12-22T03:36:07.965Z,100267.48
2022-12-22T03:38:37.437Z,100265.90
2022-12-22T03:41:07.019Z,100258.30
2022-12-22T03:43:53.960Z,100256.38
2022-12-22T03:46:32.323Z,100246.69
2022-12-22T03:49:12.710Z,100252.05
2022-12-22T03:51:47.600Z,100259.41
2022-12-22T03:54:19.103Z,100263.72
2022-12-22T03:56:48.684Z,100263.02
2022-12-22T03:59:18.800Z,100272.33
2022-12-22T04:01:53.631Z,100276.61
2022-12-22T04:04:25.584Z,100272.67
2022-12-22T04:06:55.320Z,100277.45
2022-12-22T04:09:26.528Z,100268.27
2022-12-22T04:12:14.661Z,100264.59
2022-12-22T04:14:44.024Z,100270.17
2022-12-22T04:17:13.261Z,100277.45
2022-12-22T04:19:42.758Z,100283.03
2022-12-22T04:22:11.973Z,100287.08
2022-12-22T04:24:41.682Z,100279.34
2022-12-22T04:27:10.877Z,100280.25
2022-12-22T04:29:40.115Z,100292.41
2022-12-22T04:32:09.485Z,100288.67
2022-12-22T04:34:38.939Z,100293.19
2022-12-22T04:37:16.863Z,100287.94
2022-12-22T04:39:39.157Z,100287.67
2022-12-22T04:42:08.617Z,100289.64
2022-12-22T04:44:37.804Z,100288.56
2022-12-22T04:47:07.107Z,100286.67
2022-12-22T04:49:36.378Z,100285.76
2022-12-22T04:52:05.847Z,100291.98
2022-12-22T04:54:35.319Z,100288.38
2022-12-22T04:57:04.624Z,100288.77
2022-12-22T04:59:33.818Z,100290.41
2022-12-22T05:02:03.330Z,100301.91
2022-12-22T05:04:32.701Z,100293.50
2022-12-22T05:07:01.945Z,100304.40
2022-12-22T05:09:31.258Z,100305.11
2022-12-22T05:12:00.727Z,100291.72
2022-12-22T05:14:29.969Z,100297.84
2022-12-22T05:16:59.256Z,100296.97
2022-12-22T05:19:30.888Z,100300.53
2022-12-22T05:21:59.518Z,100299.62
2022-12-22T05:24:28.805Z,100297.13
2022-12-22T05:26:58.025Z,100311.12
2022-12-22T05:29:27.295Z,100314.84
2022-12-22T05:31:56.630Z,100318.58
2022-12-22T05:34:26.409Z,100330.94
2022-12-22T05:36:55.657Z,100331.06
2022-12-22T05:39:24.905Z,100336.84
2022-12-22T05:41:54.103Z,100347.97
2022-12-22T05:44:23.330Z,100355.25
2022-12-22T05:46:53.482Z,100353.60
2022-12-22T05:49:22.834Z,100364.38
2022-12-22T05:51:53.923Z,100361.41
2022-12-22T05:54:23.212Z,100368.95
2022-12-22T05:56:52.496Z,100372.04
2022-12-22T05:59:21.716Z,100373.39
2022-12-22T06:01:51.159Z,100379.11
2022-12-22T06:04:20.641Z,100378.14
2022-12-22T06:06:50.133Z,100379.70
2022-12-22T06:09:19.364Z,100380.76
2022-12-22T06:11:48.889Z,100378.64
2022-12-22T06:14:18.144Z,100370.18
2022-12-22T06:16:47.345Z,100366.41
2022-12-22T06:19:16.817Z,100371.88
2022-12-22T06:21:46.034Z,100377.24
2022-12-22T06:24:15.281Z,100379.27
2022-12-22T06:26:44.479Z,100384.65
2022-12-22T06:29:13.764Z,100387.52
2022-12-22T06:31:43.013Z,100398.64
2022-12-22T06:34:12.950Z,100401.38
2022-12-22T06:36:42.519Z,100409.72
2022-12-22T06:39:12.497Z,100406.59
2022-12-22T06:41:59.931Z,100412.91
2022-12-22T06:44:29.522Z,100418.05
2022-12-22T06:46:58.876Z,100419.59
2022-12-22T06:49:28.426Z,100428.89
2022-12-22T06:51:57.661Z,100435.70
2022-12-22T06:54:26.879Z,100437.50
2022-12-22T06:56:56.464Z,100450.02
2022-12-22T06:59:25.662Z,100451.95
2022-12-22T07:01:55.112Z,100444.42
2022-12-22T07:04:24.539Z,100450.29
2022-12-22T07:06:54.159Z,100452.06
2022-12-22T07:09:23.368Z,100462.32
2022-12-22T07:11:52.588Z,100467.20
2022-12-22T07:14:22.075Z,100466.16
2022-12-22T07:16:51.370Z,100472.59
2022-12-22T07:19:20.858Z,100479.37
2022-12-22T07:21:51.429Z,100470.81
2022-12-22T07:24:22.449Z,100475.45
2022-12-22T07:26:51.783Z,100482.70
2022-12-22T07:29:21.019Z,100483.17
2022-12-22T07:31:50.360Z,100478.50
2022-12-22T07:34:19.739Z,100484.48
2022-12-22T07:36:48.983Z,100490.77
2022-12-22T07:39:18.191Z,100490.05
2022-12-22T07:42:05.315Z,100503.52
2022-12-22T07:44:34.799Z,100524.35
2022-12-22T07:47:04.494Z,100514.95
2022-12-22T07:49:51.677Z,100512.83
2022-12-22T07:52:21.157Z,100515.56
2022-12-22T07:54:50.545Z,100527.81
2022-12-22T07:57:19.792Z,100526.16
2022-12-22T07:59:49.202Z,100532.94
2022-12-22T08:02:18.870Z,100537.83
2022-12-22T08:04:48.338Z,100542.48
2022-12-22T08:07:17.949Z,100540.44
2022-12-22T08:09:47.497Z,100545.45
2022-12-22T08:12:17.105Z,100548.06
2022-12-22T08:14:46.367Z,100552.46
2022-12-22T08:17:15.773Z,100561.28
2022-12-22T08:19:45.105Z,100567.94
2022-12-22T08:22:14.691Z,100576.61
2022-12-22T08:24:44.008Z,100583.77
2022-12-22T08:27:19.571Z,100571.14
2022-12-22T08:29:49.328Z,100582.12
2022-12-22T08:32:18.903Z,100589.94
2022-12-22T08:34:53.111Z,100600.14
2022-12-22T08:37:24.580Z,100614.53
2022-12-22T08:39:57.048Z,100615.83
2022-12-22T08:42:27.002Z,100617.09
2022-12-22T08:44:56.461Z,100628.98
2022-12-22T08:47:26.254Z,100637.76
2022-12-22T08:49:55.550Z,100637.88
2022-12-22T08:52:25.035Z,100636.52
2022-12-22T08:54:54.329Z,100643.05
2022-12-22T08:57:24.128Z,100646.13
2022-12-22T08:59:53.343Z,100648.29
2022-12-22T09:02:23.158Z,100636.44
2022-12-22T09:04:52.467Z,100634.51
2022-12-22T09:07:21.875Z,100642.14
2022-12-22T09:09:51.178Z,100637.77
2022-12-22T09:12:20.744Z,100640.87
2022-12-22T09:14:50.125Z,100648.62
2022-12-22T09:17:19.439Z,100655.06
2022-12-22T09:19:49.066Z,100656.66
2022-12-22T09:22:25.065Z,100653.92
2022-12-22T09:24:49.537Z,100661.44
2022-12-22T09:27:18.961Z,100669.20
2022-12-22T09:29:48.584Z,100671.76
2022-12-22T09:32:18.198Z,100680.41
2022-12-22T09:34:48.771Z,100677.37
2022-12-22T09:37:18.868Z,100677.04
2022-12-22T09:39:49.862Z,100690.92
2022-12-22T09:42:21.508Z,100690.42
2022-12-22T09:44:52.693Z,100694.59
2022-12-22T09:47:37.868Z,100687.95
2022-12-22T09:50:09.011Z,100686.80
2022-12-22T09:52:49.388Z,100688.98
2022-12-22T09:55:40.220Z,100695.54
2022-12-22T09:58:12.656Z,100701.86
2022-12-22T10:00:42.473Z,100699.88
2022-12-22T10:03:31.549Z,100701.53
2022-12-22T10:06:16.320Z,100708.27
2022-12-22T10:08:45.600Z,100707.87
2022-12-22T10:11:17.429Z,100709.67
2022-12-22T10:13:47.370Z,100709.69
2022-12-22T10:16:26.041Z,100703.80
2022-12-22T10:19:10.572Z,100705.97
2022-12-22T10:21:46.608Z,100700.78
2022-12-22T10:24:30.006Z,100706.66
2022-12-22T10:27:00.539Z,100707.31
2022-12-22T10:29:30.213Z,100705.67
2022-12-22T10:32:05.676Z,100704.27
2022-12-22T10:34:35.098Z,100702.86
2022-12-22T10:37:05.693Z,100699.84
2022-12-22T10:39:36.305Z,100705.95
2022-12-22T10:42:13.983Z,100708.60
2022-12-22T10:44:48.473Z,100713.91
2022-12-22T10:47:20.669Z,100714.05
2022-12-22T10:52:30.428Z,100737.67
2022-12-22T10:54:59.839Z,100733.86
2022-12-22T10:57:32.045Z,100732.30
2022-12-22T11:00:02.921Z,100733.49
2022-12-22T11:02:40.518Z,100727.17
2022-12-22T11:05:11.621Z,100734.06
2022-12-22T11:07:43.360Z,100742.13
2022-12-22T11:10:27.515Z,100750.25
2022-12-22T11:13:24.101Z,100749.14
2022-12-22T11:16:04.394Z,100753.52
2022-12-22T11:18:45.960Z,100756.20
2022-12-22T11:21:34.256Z,100757.52
2022-12-22T11:24:07.078Z,100756.05
2022-12-22T11:26:48.727Z,100752.45
2022-12-22T11:29:24.388Z,100759.73
2022-12-22T11:32:19.473Z,100766.52
2022-12-22T11:35:01.108Z,100768.39
2022-12-22T11:37:42.261Z,100765.20
2022-12-22T11:40:17.910Z,100772.11
2022-12-22T11:42:59.349Z,100778.20
2022-12-22T11:45:49.691Z,100772.32
2022-12-22T11:48:28.200Z,100768.13
2022-12-22T11:51:10.477Z,100762.18
2022-12-22T11:54:05.384Z,100756.55
2022-12-22T11:56:37.981Z,100754.09
2022-12-22T11:59:31.462Z,100745.86
2022-12-22T12:02:20.700Z,100739.58
2022-12-22T12:05:02.235Z,100740.67
2022-12-22T12:07:38.260Z,100737.03
2022-12-22T12:10:31.937Z,100726.81
2022-12-22T12:13:25.747Z,100730.28
2022-12-22T12:16:10.200Z,100726.97
2022-12-22T12:18:57.984Z,100728.43
2022-12-22T12:21:32.719Z,100714.51
2022-12-22T12:24:24.642Z,100722.95
2022-12-22T12:26:57.056Z,100715.34
2022-12-22T12:29:28.937Z,100706.05
2022-12-22T12:32:04.020Z,100708.06
2022-12-22T12:34:37.606Z,100704.36
2022-12-22T12:37:31.383Z,100706.05
2022-12-22T12:40:22.211Z,100700.34
2022-12-22T12:42:51.896Z,100699.61
2022-12-22T12:45:36.036Z,100693.42
2022-12-22T12:48:24.367Z,100694.27
2022-12-22T12:50:58.199Z,100686.16
2022-12-22T12:53:28.966Z,100695.56
2022-12-22T12:56:10.244Z,100687.69
2022-12-22T12:58:43.371Z,100690.20
2022-12-22T13:01:16.292Z,100688.06
2022-12-22T13:04:02.992Z,100689.84
2022-12-22T13:06:50.610Z,100689.73
2022-12-22T13:09:50.708Z,100681.02
2022-12-22T13:12:13.688Z,100676.71
2022-12-22T13:14:58.882Z,100679.01
2022-12-22T13:17:37.229Z,100679.36
2022-12-22T13:20:10.257Z,100677.46
2022-12-22T13:22:40.710Z,100673.88
2022-12-22T13:25:15.980Z,100676.26
2022-12-22T13:27:45.979Z,100671.84
2022-12-22T13:30:20.031Z,100663.27
2022-12-22T13:32:50.745Z,100659.55
2022-12-22T13:35:35.547Z,100655.73
2022-12-22T13:37:57.834Z,100657.91
2022-12-22T13:40:31.998Z,100649.33
2022-12-22T13:43:08.045Z,100644.41
2022-12-22T13:45:43.543Z,100641.08
2022-12-22T13:48:19.411Z,100637.98
2022-12-22T13:50:54.039Z,100633.56
2022-12-22T13:56:15.572Z,100623.91
2022-12-22T13:58:46.188Z,100624.39
2022-12-22T14:01:19.256Z,100622.95
2022-12-22T14:04:00.993Z,100615.91
2022-12-22T14:06:38.094Z,100615.10
2022-12-22T14:09:23.165Z,100613.66
2022-12-22T14:12:04.887Z,100611.52
2022-12-22T14:14:39.141Z,100605.92
2022-12-22T14:17:29.963Z,100603.42
2022-12-22T14:20:01.703Z,100596.02
2022-12-22T14:22:36.774Z,100594.46
2022-12-22T14:25:09.302Z,100591.39
2022-12-22T14:27:39.173Z,100584.59
2022-12-22T14:30:19.815Z,100584.94
2022-12-22T14:32:55.155Z,100584.94
2022-12-22T14:35:26.310Z,100580.04
2022-12-22T14:37:58.965Z,100571.70
2022-12-22T14:40:38.287Z,100573.98
2022-12-22T14:43:19.613Z,100568.25
2022-12-22T14:45:51.483Z,100574.20
2022-12-22T14:48:29.177Z,100571.93
2022-12-22T14:50:59.072Z,100571.83
2022-12-22T14:53:37.556Z,100565.73
2022-12-22T14:56:10.668Z,100566.70
2022-12-22T14:58:42.770Z,100556.58
2022-12-22T15:01:28.308Z,100555.98
2022-12-22T15:04:06.929Z,100556.09
2022-12-22T15:06:40.170Z,100557.30
2022-12-22T15:09:33.339Z,100549.67
2022-12-22T15:11:59.294Z,100543.59
2022-12-22T15:14:36.667Z,100538.69
2022-12-22T15:17:02.125Z,100535.96
2022-12-22T15:19:34.230Z,100530.84
2022-12-22T15:22:03.770Z,100535.84
2022-12-22T15:24:33.675Z,100528.70
2022-12-22T15:27:03.140Z,100525.11
2022-12-22T15:29:32.575Z,100523.45
2022-12-22T15:32:02.353Z,100518.09
2022-12-22T15:34:33.226Z,100518.21
2022-12-22T15:37:02.576Z,100518.55
2022-12-22T15:39:31.793Z,100511.53
2022-12-22T15:42:01.605Z,100507.60
2022-12-22T15:44:36.813Z,100501.76
2022-12-22T15:47:01.904Z,100504.72
2022-12-22T15:49:31.528Z,100497.11
2022-12-22T15:52:02.691Z,100493.75
2022-12-22T15:54:34.217Z,100493.41
2022-12-22T15:57:03.452Z,100494.96
2022-12-22T15:59:32.719Z,100487.09
2022-12-22T16:02:02.745Z,100488.53
2022-12-22T16:04:32.086Z,100484.94
2022-12-22T16:07:01.444Z,100477.67
2022-12-22T16:09:35.807Z,100477.55
2022-12-22T16:12:11.313Z,100478.73
2022-12-22T16:14:46.588Z,100468.38
2022-12-22T16:17:24.138Z,100469.44
2022-12-22T16:19:53.848Z,100467.04
2022-12-22T16:22:31.986Z,100463.10
2022-12-22T16:25:03.624Z,100464.41
2022-12-22T16:27:33.204Z,100458.33
2022-12-22T16:30:02.442Z,100454.27
2022-12-22T16:32:32.968Z,100451.18
2022-12-22T16:35:16.306Z,100448.22
2022-12-22T16:37:46.541Z,100444.50
2022-12-22T16:40:17.755Z,100437.70
2022-12-22T16:45:49.775Z,100428.05
2022-12-22T16:48:25.094Z,100430.42
2022-12-22T16:50:54.351Z,100419.05
2022-12-22T16:53:23.594Z,100421.33
2022-12-22T16:55:52.994Z,100418.20
2022-12-22T16:58:22.857Z,100415.57
2022-12-22T17:00:52.438Z,100415.66
2022-12-22T17:03:26.643Z,100415.02
2022-12-22T17:05:59.590Z,100410.25
2022-12-22T17:08:35.129Z,100410.95
2022-12-22T17:11:11.397Z,100406.84
2022-12-22T17:13:41.199Z,100408.23
2022-12-22T17:16:22.327Z,100400.00
2022-12-22T17:18:51.942Z,100392.30
2022-12-22T17:21:22.764Z,100381.51
2022-12-22T17:23:54.404Z,100384.08
2022-12-22T17:26:25.798Z,100374.75
2022-12-22T17:28:55.149Z,100379.14
2022-12-22T17:31:24.667Z,100370.69
2022-12-22T17:33:54.456Z,100369.95
2022-12-22T17:36:29.557Z,100370.92
2022-12-22T17:38:59.352Z,100364.77
2022-12-22T17:41:29.448Z,100365.92
2022-12-22T17:43:59.048Z,100362.02
2022-12-22T17:46:29.433Z,100360.67
2022-12-22T17:48:59.365Z,100365.05
2022-12-22T17:51:29.348Z,100357.11
2022-12-22T17:53:59.246Z,100353.51
2022-12-22T17:56:29.413Z,100350.84
2022-12-22T17:58:58.973Z,100352.84
2022-12-22T18:01:31.945Z,100348.55
2022-12-22T18:04:01.835Z,100352.16
2022-12-22T18:06:34.222Z,100347.17
2022-12-22T18:09:04.975Z,100346.40
2022-12-22T18:11:34.678Z,100334.30
2022-12-22T18:14:05.460Z,100332.01
2022-12-22T18:16:34.983Z,100329.11
2022-12-22T18:19:05.437Z,100323.72
2022-12-22T18:21:34.952Z,100321.52
2022-12-22T18:24:04.938Z,100325.05
2022-12-22T18:26:34.296Z,100319.09
2022-12-22T18:29:04.260Z,100326.08
2022-12-22T18:31:34.319Z,100323.33
2022-12-22T18:34:04.142Z,100335.39
2022-12-22T18:36:34.409Z,100334.00
2022-12-22T18:39:05.698Z,100335.78
2022-12-22T18:41:35.659Z,100331.23
2022-12-22T18:44:05.032Z,100329.58
2022-12-22T18:46:34.560Z,100330.25
2022-12-22T18:49:06.010Z,100334.41
2022-12-22T18:51:34.795Z,100325.00
2022-12-22T18:54:04.353Z,100322.23
2022-12-22T18:56:33.692Z,100323.50
2022-12-22T18:59:03.512Z,100327.16
2022-12-22T19:01:32.860Z,100327.86
2022-12-22T19:04:02.807Z,100326.27
2022-12-22T19:06:32.206Z,100322.66
2022-12-22T19:09:01.467Z,100321.30
2022-12-22T19:11:31.849Z,100324.13
2022-12-22T19:14:01.205Z,100323.64
2022-12-22T19:16:30.764Z,100323.51
2022-12-22T19:19:01.646Z,100324.03
2022-12-22T19:21:31.345Z,100330.00
2022-12-22T19:24:00.864Z,100330.20
2022-12-22T19:26:30.339Z,100330.75
2022-12-22T19:29:01.429Z,100334.50
2022-12-22T19:31:33.680Z,100323.09
2022-12-22T19:34:05.689Z,100335.82
2022-12-22T19:36:35.235Z,100332.16
2022-12-22T19:39:06.071Z,100337.19
2022-12-22T19:41:38.667Z,100328.69
2022-12-22T19:44:17.364Z,100325.08
2022-12-22T19:46:47.636Z,100326.95
2022-12-22T19:49:18.690Z,100330.42
2022-12-22T19:51:48.071Z,100327.23
2022-12-22T19:54:19.815Z,100336.63
2022-12-22T19:56:51.897Z,100327.56
2022-12-22T19:59:39.847Z,100329.80
2022-12-22T20:02:24.517Z,100330.28
2022-12-22T20:04:55.212Z,100331.25
2022-12-22T20:07:26.565Z,100325.72
2022-12-22T20:09:56.054Z,100330.75
2022-12-22T20:12:28.435Z,100327.50
2022-12-22T20:14:58.175Z,100329.94
2022-12-22T20:17:27.533Z,100323.92
2022-12-22T20:19:57.067Z,100335.67
2022-12-22T20:22:26.720Z,100335.67
2022-12-22T20:24:56.229Z,100333.89
2022-12-22T20:27:31.589Z,100329.85
2022-12-22T20:30:01.426Z,100328.63
2022-12-22T20:32:30.722Z,100325.63
2022-12-22T20:34:59.946Z,100327.51
2022-12-22T20:37:29.732Z,100329.30
2022-12-22T20:39:58.998Z,100330.98
2022-12-22T20:42:28.491Z,100331.12
2022-12-22T20:45:02.440Z,100335.81
2022-12-22T20:47:29.228Z,100334.22
2022-12-22T20:49:58.419Z,100328.07
2022-12-22T20:52:28.101Z,100331.73
2022-12-22T20:54:57.540Z,100338.03
2022-12-22T20:57:27.749Z,100342.53
2022-12-22T20:59:57.077Z,100333.33
2022-12-22T21:02:30.559Z,100338.87
2022-12-22T21:05:00.035Z,100335.69
2022-12-22T21:07:29.750Z,100345.03
2022-12-22T21:09:59.259Z,100346.63
2022-12-22T21:12:28.572Z,100345.64
2022-12-22T21:14:58.279Z,100339.69
2022-12-22T21:17:27.564Z,100333.61
2022-12-22T21:19:57.112Z,100341.64
2022-12-22T21:22:26.366Z,100340.72
2022-12-22T21:24:55.627Z,100346.25
2022-12-22T21:27:25.055Z,100345.22
2022-12-22T21:29:54.615Z,100344.17
2022-12-22T21:32:24.092Z,100351.17
2022-12-22T21:34:53.439Z,100351.73
2022-12-22T21:37:22.847Z,100345.91
2022-12-22T21:39:52.344Z,100342.75
2022-12-22T21:42:21.654Z,100343.92
2022-12-22T21:44:51.510Z,100334.08
2022-12-22T21:47:21.448Z,100330.41
2022-12-22T21:49:51.094Z,100334.48
2022-12-22T21:52:20.710Z,100334.86
2022-12-22T21:54:50.154Z,100344.26
2022-12-22T21:57:19.504Z,100355.62
2022-12-22T21:59:50.237Z,100352.48
2022-12-22T22:02:20.518Z,100359.76
2022-12-22T22:04:54.669Z,100357.41
2022-12-22T22:07:21.087Z,100352.15
2022-12-22T22:09:50.608Z,100360.64
2022-12-22T22:12:37.457Z,100365.63
2022-12-22T22:15:08.397Z,100365.63
2022-12-22T22:17:38.657Z,100365.86
2022-12-22T22:20:09.695Z,100374.83
2022-12-22T22:22:39.126Z,100380.46
2022-12-22T22:25:09.518Z,100381.41
2022-12-22T22:27:44.261Z,100379.19
2022-12-22T22:30:13.685Z,100380.73
2022-12-22T22:32:43.858Z,100378.34
2022-12-22T22:35:13.464Z,100378.72
2022-12-22T22:37:45.318Z,100379.33
2022-12-22T22:40:16.337Z,100388.87
2022-12-22T22:42:45.780Z,100389.57
2022-12-22T22:45:19.077Z,100385.90
2022-12-22T22:47:48.269Z,100389.84
2022-12-22T22:50:18.951Z,100382.56
2022-12-22T22:52:48.509Z,100383.88
2022-12-22T22:55:18.885Z,100378.56
2022-12-22T22:57:48.387Z,100381.52
2022-12-22T23:00:19.342Z,100383.20
2022-12-22T23:02:48.924Z,100389.14
2022-12-22T23:05:22.736Z,100397.30
2022-12-22T23:07:49.381Z,100397.67
2022-12-22T23:10:18.890Z,100391.43
2022-12-22T23:12:48.361Z,100390.72
2022-12-22T23:15:17.675Z,100388.73
2022-12-22T23:17:46.893Z,100390.19
2022-12-22T23:20:16.159Z,100392.25
2022-12-22T23:22:45.546Z,100382.30
2022-12-22T23:25:14.774Z,100386.86
2022-12-22T23:27:44.159Z,100386.86
2022-12-22T23:30:14.155Z,100377.59
2022-12-22T23:32:43.942Z,100388.58
2022-12-22T23:35:13.157Z,100376.41
2022-12-22T23:37:42.476Z,100370.04
2022-12-22T23:42:43.741Z,100380.96
2022-12-22T23:45:13.357Z,100379.17
2022-12-22T23:47:42.787Z,100378.67
2022-12-22T23:50:14.316Z,100385.84
2022-12-22T23:52:48.908Z,100392.79
2022-12-22T23:55:15.407Z,100393.63
2022-12-22T23:57:45.012Z,100387.30
